Terminal Aerodrome Forecast
Issued by NWS

Home | Current Version | Previous Version | Text Only | Print | Product List | Glossary On
Versions: 1 2 3 4 5 6 7 8 9 10 11 12 13
000
FTUS44 KLIX 231700
TAFMSY
TAF
KMSY 231727Z 2318/2418 VRB05KT P6SM FEW040
     FM240000 17007KT P6SM SCT050
     FM240800 VRB03KT P6SM SCT050
     FM241400 19004KT P6SM SCT050=

USA.gov is the U.S. government's official web portal to all federal, state and local government web resources and services.